createdAt,value
2019-04-01T00:00:36.136Z,11.23
2019-04-01T00:03:09.379Z,14.37
2019-04-01T00:05:41.689Z,16.33
2019-04-01T00:08:13.219Z,17.53
2019-04-01T00:10:44.801Z,18.17
2019-04-01T00:13:17.919Z,15.93
2019-04-01T00:15:50.526Z,19.13
2019-04-01T00:18:22.711Z,17.20
2019-04-01T00:20:54.239Z,16.83
2019-04-01T00:23:26.625Z,16.33
2019-04-01T00:25:58.701Z,20.60
2019-04-01T00:28:30.258Z,17.20
2019-04-01T00:31:01.786Z,20.87
2019-04-01T00:33:34.402Z,17.77
2019-04-01T00:36:05.997Z,17.10
2019-04-01T00:38:37.893Z,17.77
2019-04-01T00:41:09.522Z,11.70
2019-04-01T00:43:53.528Z,16.37
2019-04-01T00:46:26.261Z,14.70
2019-04-01T00:48:57.894Z,11.17
2019-04-01T00:51:29.581Z,14.67
2019-04-01T00:54:02.346Z,16.07
2019-04-01T00:56:33.943Z,18.13
2019-04-01T00:59:06.288Z,14.97
2019-04-01T01:01:37.881Z,18.10
2019-04-01T01:04:09.398Z,17.83
2019-04-01T01:06:41.417Z,18.20
2019-04-01T01:09:13.061Z,21.57
2019-04-01T01:11:45.580Z,20.80
2019-04-01T01:14:17.235Z,17.07
2019-04-01T01:16:49.866Z,22.87
2019-04-01T01:19:21.667Z,18.43
2019-04-01T01:21:53.295Z,18.93
2019-04-01T01:24:25.587Z,25.93
2019-04-01T01:26:57.094Z,18.43
2019-04-01T01:29:28.999Z,18.00
2019-04-01T01:32:00.507Z,18.87
2019-04-01T01:34:32.032Z,22.53
2019-04-01T01:37:03.743Z,19.50
2019-04-01T01:39:35.294Z,18.70
2019-04-01T01:42:07.493Z,17.33
2019-04-01T01:44:39.015Z,18.97
2019-04-01T01:47:10.525Z,20.70
2019-04-01T01:49:42.175Z,17.90
2019-04-01T01:52:13.693Z,21.60
2019-04-01T01:54:45.336Z,23.27
2019-04-01T01:57:16.866Z,24.50
2019-04-01T01:59:48.485Z,22.20
2019-04-01T02:02:20.207Z,26.73
2019-04-01T02:04:52.943Z,30.83
2019-04-01T02:07:24.443Z,28.40
2019-04-01T02:09:56.011Z,21.43
2019-04-01T02:12:27.530Z,25.90
2019-04-01T02:14:59.049Z,27.97
2019-04-01T02:17:30.695Z,30.50
2019-04-01T02:20:02.234Z,34.27
2019-04-01T02:22:33.839Z,29.50
2019-04-01T02:25:06.656Z,31.43
2019-04-01T02:27:38.189Z,31.37
2019-04-01T02:30:10.632Z,29.60
2019-04-01T02:32:42.240Z,24.70
2019-04-01T02:35:13.980Z,26.77
2019-04-01T02:37:45.597Z,28.37
2019-04-01T02:40:21.683Z,24.67
2019-04-01T02:42:51.423Z,24.50
2019-04-01T02:45:23.422Z,24.47
2019-04-01T02:47:54.946Z,26.27
2019-04-01T02:50:26.591Z,22.37
2019-04-01T02:52:58.865Z,25.77
2019-04-01T02:55:30.793Z,26.37
2019-04-01T02:58:02.414Z,22.33
2019-04-01T03:00:34.226Z,26.23
2019-04-01T03:03:05.886Z,22.40
2019-04-01T03:05:37.531Z,34.30
2019-04-01T03:08:09.414Z,23.20
2019-04-01T03:10:41.055Z,20.37
2019-04-01T03:13:13.666Z,22.73
2019-04-01T03:15:45.180Z,23.93
2019-04-01T03:18:16.688Z,18.37
2019-04-01T03:20:48.217Z,21.67
2019-04-01T03:23:19.981Z,21.63
2019-04-01T03:25:51.819Z,19.33
2019-04-01T03:28:23.476Z,19.43
2019-04-01T03:30:54.993Z,24.20
2019-04-01T03:33:27.341Z,20.17
2019-04-01T03:35:58.992Z,21.87
2019-04-01T03:38:31.023Z,19.33
2019-04-01T03:41:02.865Z,24.67
2019-04-01T03:43:35.716Z,22.33
2019-04-01T03:46:07.334Z,19.80
2019-04-01T03:48:38.847Z,20.37
2019-04-01T03:51:10.355Z,21.03
2019-04-01T03:53:42.352Z,19.07
2019-04-01T03:56:14.313Z,20.00
2019-04-01T03:58:45.816Z,21.67
2019-04-01T04:01:18.179Z,21.07
2019-04-01T04:03:49.821Z,23.57
2019-04-01T04:06:21.410Z,21.33
2019-04-01T04:08:53.918Z,23.13
2019-04-01T04:11:25.830Z,25.30
2019-04-01T04:13:57.524Z,20.77
2019-04-01T04:16:30.065Z,19.03
2019-04-01T04:19:02.542Z,22.17
2019-04-01T04:21:34.250Z,23.37
2019-04-01T04:24:05.780Z,33.10
2019-04-01T04:26:37.771Z,30.30
2019-04-01T04:29:09.290Z,27.43
2019-04-01T04:31:40.813Z,24.60
2019-04-01T04:34:12.453Z,22.23
2019-04-01T04:36:45.257Z,25.27
2019-04-01T04:39:17.260Z,22.57
2019-04-01T04:41:49.368Z,27.20
2019-04-01T04:44:20.883Z,22.37
2019-04-01T04:46:52.419Z,20.10
2019-04-01T04:49:24.854Z,26.70
2019-04-01T04:51:57.474Z,22.57
2019-04-01T04:54:29.705Z,24.60
2019-04-01T04:57:01.224Z,21.30
2019-04-01T04:59:32.868Z,24.60
2019-04-01T05:02:05.104Z,23.57
2019-04-01T05:04:36.701Z,23.60
2019-04-01T05:07:08.271Z,28.80
2019-04-01T05:09:41.208Z,32.43
2019-04-01T05:12:12.684Z,26.27
2019-04-01T05:14:44.497Z,30.17
2019-04-01T05:17:16.048Z,28.00
2019-04-01T05:19:48.041Z,30.87
2019-04-01T05:22:19.841Z,32.83
2019-04-01T05:24:51.914Z,38.20
2019-04-01T05:27:26.398Z,34.07
2019-04-01T05:29:57.936Z,27.30
2019-04-01T05:32:29.452Z,32.60
2019-04-01T05:35:01.065Z,32.40
2019-04-01T05:37:33.743Z,31.77
2019-04-01T05:40:07.663Z,27.37
2019-04-01T05:42:41.583Z,28.27
2019-04-01T05:45:13.197Z,19.03
2019-04-01T05:47:46.366Z,27.47
2019-04-01T05:50:18.170Z,23.87
2019-04-01T05:52:51.024Z,19.53
2019-04-01T05:55:22.730Z,30.63
2019-04-01T05:57:54.268Z,25.87
2019-04-01T06:00:39.359Z,23.07
2019-04-01T06:03:10.936Z,19.87
2019-04-01T06:05:42.543Z,26.43
2019-04-01T06:08:14.343Z,32.10
2019-04-01T06:10:46.878Z,34.87
2019-04-01T06:13:18.476Z,26.73
2019-04-01T06:15:50.012Z,32.00
2019-04-01T06:18:22.221Z,23.07
2019-04-01T06:20:54.131Z,28.43
2019-04-01T06:23:26.623Z,25.10
2019-04-01T06:25:58.356Z,22.67
2019-04-01T06:28:29.900Z,33.43
2019-04-01T06:31:02.785Z,29.83
2019-04-01T06:33:34.291Z,46.63
2019-04-01T06:36:05.818Z,21.83
2019-04-01T06:38:37.657Z,30.63
2019-04-01T06:41:09.238Z,35.07
2019-04-01T06:43:40.777Z,24.53
2019-04-01T06:46:12.333Z,27.10
2019-04-01T06:48:43.858Z,23.93
2019-04-01T06:51:15.362Z,18.67
2019-04-01T06:53:47.014Z,18.77
2019-04-01T06:56:18.540Z,17.17
2019-04-01T06:58:50.118Z,18.67
2019-04-01T07:01:22.138Z,15.05
2019-04-01T07:03:53.887Z,13.32
2019-04-01T07:06:25.536Z,18.87
2019-04-01T07:08:57.047Z,18.95
2019-04-01T07:11:28.719Z,15.25
2019-04-01T07:14:00.439Z,22.70
2019-04-01T07:16:34.177Z,16.37
2019-04-01T07:19:06.170Z,15.80
2019-04-01T07:21:37.704Z,19.57
2019-04-01T07:24:09.349Z,21.45
2019-04-01T07:26:41.344Z,16.55
2019-04-01T07:29:12.984Z,14.00
2019-04-01T07:31:44.524Z,18.27
2019-04-01T07:34:16.553Z,15.90
2019-04-01T07:36:48.078Z,21.40
2019-04-01T07:39:19.608Z,16.37
2019-04-01T07:41:51.723Z,19.48
2019-04-01T07:44:23.227Z,15.03
2019-04-01T07:46:54.775Z,13.43
2019-04-01T07:49:27.103Z,11.15
2019-04-01T07:51:58.733Z,12.60
2019-04-01T07:54:33.909Z,15.18
2019-04-01T07:57:05.385Z,11.78
2019-04-01T07:59:36.912Z,14.10
2019-04-01T08:02:09.521Z,16.67
2019-04-01T08:04:41.176Z,20.23
2019-04-01T08:07:13.634Z,12.15
2019-04-01T08:09:46.900Z,9.40
2019-04-01T08:12:18.847Z,11.03
2019-04-01T08:14:50.357Z,11.83
2019-04-01T08:17:21.894Z,12.27
2019-04-01T08:19:53.521Z,8.90
2019-04-01T08:22:25.184Z,7.33
2019-04-01T08:24:56.654Z,7.17
2019-04-01T08:27:28.468Z,8.23
2019-04-01T08:30:00.398Z,10.07
2019-04-01T08:32:32.565Z,4.23
2019-04-01T08:35:06.935Z,4.60
2019-04-01T08:37:40.563Z,5.20
2019-04-01T08:40:12.936Z,7.53
2019-04-01T08:42:44.850Z,9.17
2019-04-01T08:45:16.465Z,6.60
2019-04-01T08:47:48.128Z,3.80
2019-04-01T08:50:19.643Z,4.40
2019-04-01T08:52:53.169Z,5.90
2019-04-01T08:55:24.434Z,3.40
2019-04-01T08:57:56.674Z,5.80
2019-04-01T09:00:29.020Z,12.17
2019-04-01T09:03:00.621Z,4.60
2019-04-01T09:05:32.175Z,4.67
2019-04-01T09:08:03.683Z,3.63
2019-04-01T09:10:36.845Z,7.47
2019-04-01T09:13:08.448Z,6.30
2019-04-01T09:15:40.242Z,3.47
2019-04-01T09:18:11.905Z,2.13
2019-04-01T09:20:43.741Z,2.30
2019-04-01T09:23:15.257Z,5.80
2019-04-01T09:25:46.997Z,2.67
2019-04-01T09:28:18.527Z,3.20
2019-04-01T09:30:50.074Z,3.83
2019-04-01T09:33:21.585Z,1.40
2019-04-01T09:35:57.902Z,2.53
2019-04-01T09:38:29.742Z,5.03
2019-04-01T09:41:01.389Z,2.40
2019-04-01T09:43:34.257Z,1.62
2019-04-01T09:46:05.810Z,4.83
2019-04-01T09:48:37.398Z,3.50
2019-04-01T09:51:09.055Z,4.33
2019-04-01T09:53:40.585Z,6.53
2019-04-01T09:56:12.359Z,7.23
2019-04-01T09:58:44.263Z,2.97
2019-04-01T10:01:15.786Z,5.40
2019-04-01T10:03:47.303Z,4.50
2019-04-01T10:06:18.857Z,1.60
2019-04-01T10:08:50.463Z,1.37
2019-04-01T10:11:22.124Z,4.10
2019-04-01T10:13:53.658Z,2.00
2019-04-01T10:16:26.609Z,3.17
2019-04-01T10:18:58.259Z,4.23
2019-04-01T10:21:29.981Z,4.70
2019-04-01T10:24:03.187Z,8.97
2019-04-01T10:26:34.702Z,4.05
2019-04-01T10:29:06.209Z,3.58
2019-04-01T10:31:38.702Z,0.93
2019-04-01T10:34:11.263Z,3.90
2019-04-01T10:36:42.925Z,1.23
2019-04-01T10:39:14.840Z,4.93
2019-04-01T10:41:46.657Z,10.20
2019-04-01T10:44:18.413Z,2.40
2019-04-01T10:46:50.034Z,1.43
2019-04-01T10:49:21.690Z,6.15
2019-04-01T10:51:54.234Z,5.03
2019-04-01T10:54:26.229Z,6.20
2019-04-01T10:56:58.896Z,2.12
2019-04-01T10:59:30.539Z,16.03
2019-04-01T11:02:02.582Z,3.37
2019-04-01T11:04:34.378Z,1.82
2019-04-01T11:07:06.317Z,2.40
2019-04-01T11:09:38.849Z,0.90
2019-04-01T11:12:10.936Z,1.32
2019-04-01T11:14:42.484Z,1.47
2019-04-01T11:17:15.407Z,0.87
2019-04-01T11:19:47.855Z,1.77
2019-04-01T11:22:19.615Z,1.35
2019-04-01T11:24:52.721Z,18.55
2019-04-01T11:27:24.303Z,10.77
2019-04-01T11:29:55.838Z,2.85
2019-04-01T11:32:28.828Z,5.72
2019-04-01T11:35:00.656Z,1.85
2019-04-01T11:37:32.159Z,1.52
2019-04-01T11:40:10.975Z,4.13
2019-04-01T11:42:41.086Z,2.80
2019-04-01T11:45:12.653Z,1.17
2019-04-01T11:47:44.214Z,1.87
2019-04-01T11:50:16.315Z,0.50
2019-04-01T11:52:47.891Z,0.53
2019-04-01T11:55:19.378Z,0.95
2019-04-01T11:57:57.656Z,4.43
2019-04-01T12:00:26.195Z,0.80
2019-04-01T12:02:58.904Z,1.22
2019-04-01T12:05:31.290Z,3.25
2019-04-01T12:08:02.877Z,1.60
2019-04-01T12:10:35.630Z,6.78
2019-04-01T12:13:07.181Z,5.60
2019-04-01T12:15:38.693Z,5.72
2019-04-01T12:18:10.239Z,1.77
2019-04-01T12:20:42.826Z,3.27
2019-04-01T12:23:14.928Z,1.00
2019-04-01T12:25:46.638Z,2.62
2019-04-01T12:28:18.676Z,3.60
2019-04-01T12:30:52.107Z,2.77
2019-04-01T12:33:26.184Z,4.20
2019-04-01T12:35:57.278Z,3.75
2019-04-01T12:38:29.282Z,3.70
2019-04-01T12:41:00.879Z,3.22
2019-04-01T12:43:32.582Z,3.53
2019-04-01T12:46:04.943Z,5.20
2019-04-01T12:48:37.234Z,5.63
2019-04-01T12:51:09.342Z,4.13
2019-04-01T12:53:42.207Z,2.30
2019-04-01T12:56:14.063Z,8.23
2019-04-01T12:58:45.760Z,6.25
2019-04-01T13:01:17.277Z,7.80
2019-04-01T13:03:49.583Z,3.02
2019-04-01T13:06:22.131Z,2.00
2019-04-01T13:08:55.431Z,4.13
2019-04-01T13:11:28.132Z,3.55
2019-04-01T13:14:01.441Z,8.08
2019-04-01T13:16:33.579Z,3.52
2019-04-01T13:19:08.100Z,3.65
2019-04-01T13:21:40.134Z,2.17
2019-04-01T13:24:11.896Z,7.05
2019-04-01T13:26:43.461Z,3.15
2019-04-01T13:29:15.563Z,5.30
2019-04-01T13:31:47.418Z,4.35
2019-04-01T13:34:20.274Z,4.60
2019-04-01T13:36:51.956Z,6.72
2019-04-01T13:39:23.609Z,5.70
2019-04-01T13:41:56.283Z,2.72
2019-04-01T13:44:36.619Z,3.25
2019-04-01T13:47:07.616Z,5.15
2019-04-01T13:49:34.696Z,3.83
2019-04-01T13:52:06.506Z,3.37
2019-04-01T13:54:38.032Z,5.83
2019-04-01T13:57:09.573Z,5.92
